createdAt,value
2023-01-30T00:04:29.324Z,51.92
2023-01-30T00:09:30.813Z,51.43
2023-01-30T00:14:32.304Z,51.86
2023-01-30T00:19:33.812Z,51.94
2023-01-30T00:24:35.399Z,52.05
2023-01-30T00:29:36.943Z,51.58
2023-01-30T00:34:38.450Z,51.54
2023-01-30T00:39:39.948Z,51.82
2023-01-30T00:45:00.198Z,51.51
2023-01-30T00:50:01.803Z,52.03
2023-01-30T00:55:03.864Z,51.83
2023-01-30T01:00:06.099Z,51.59
2023-01-30T01:05:07.984Z,51.90
2023-01-30T01:10:16.219Z,52.16
2023-01-30T01:15:18.596Z,52.29
2023-01-30T01:20:23.119Z,52.21
2023-01-30T01:25:25.549Z,51.71
2023-01-30T01:30:27.102Z,52.23
2023-01-30T01:35:28.612Z,52.07
2023-01-30T01:40:48.695Z,52.05
2023-01-30T01:45:55.595Z,52.22
2023-01-30T01:51:15.800Z,52.42
2023-01-30T01:56:19.897Z,52.13
2023-01-30T02:06:25.250Z,51.94
2023-01-30T02:11:49.676Z,52.33
2023-01-30T02:16:51.227Z,52.40
2023-01-30T02:22:20.628Z,52.36
2023-01-30T02:28:00.775Z,52.64
2023-01-30T02:33:11.049Z,52.67
2023-01-30T02:38:45.871Z,52.62
2023-01-30T02:44:26.580Z,52.14
2023-01-30T02:49:34.636Z,52.51
2023-01-30T02:54:36.214Z,52.43
2023-01-30T02:59:43.251Z,52.05
2023-01-30T03:05:18.743Z,52.36
2023-01-30T03:15:50.039Z,52.34
2023-01-30T03:20:51.728Z,52.21
2023-01-30T03:25:53.791Z,52.45
2023-01-30T03:30:55.567Z,52.43
2023-01-30T03:35:57.230Z,52.09
2023-01-30T03:40:58.813Z,51.98
2023-01-30T03:46:00.485Z,52.39
2023-01-30T03:51:03.534Z,52.43
2023-01-30T03:56:05.498Z,52.19
2023-01-30T04:01:09.638Z,52.81
2023-01-30T04:06:11.541Z,52.77
2023-01-30T04:11:13.202Z,52.44
2023-01-30T04:16:23.883Z,53.01
2023-01-30T04:21:44.107Z,53.24
2023-01-30T04:26:46.543Z,52.98
2023-01-30T04:31:48.685Z,52.62
2023-01-30T04:37:02.504Z,52.71
2023-01-30T04:42:05.468Z,52.95
2023-01-30T04:47:14.902Z,52.51
2023-01-30T04:52:16.629Z,52.48
2023-01-30T04:57:18.166Z,52.81
2023-01-30T05:02:21.273Z,52.40
2023-01-30T05:07:24.470Z,52.24
2023-01-30T05:12:26.020Z,52.85
2023-01-30T05:17:27.765Z,52.15
2023-01-30T05:22:29.288Z,52.81
2023-01-30T05:27:30.923Z,52.47
2023-01-30T05:32:32.458Z,52.75
2023-01-30T05:37:34.042Z,52.56
2023-01-30T05:42:35.599Z,52.41
2023-01-30T05:47:37.192Z,52.66
2023-01-30T05:52:38.726Z,52.94
2023-01-30T05:57:40.263Z,52.90
2023-01-30T06:02:41.880Z,52.77
2023-01-30T06:07:43.415Z,53.25
2023-01-30T06:12:44.932Z,53.22
2023-01-30T06:17:46.489Z,53.38
2023-01-30T06:22:49.137Z,53.51
2023-01-30T06:27:50.793Z,53.27
2023-01-30T06:32:52.470Z,53.25
2023-01-30T06:37:54.019Z,53.52
2023-01-30T06:42:55.606Z,53.77
2023-01-30T06:47:57.246Z,53.29
2023-01-30T06:53:01.172Z,53.54
2023-01-30T06:58:06.988Z,53.60
2023-01-30T07:03:16.583Z,53.35
2023-01-30T07:08:18.211Z,53.11
2023-01-30T07:13:19.753Z,53.11
2023-01-30T07:18:21.369Z,53.29
2023-01-30T07:23:22.889Z,53.13
2023-01-30T07:28:24.435Z,53.09
2023-01-30T07:33:26.022Z,53.58
2023-01-30T07:38:27.680Z,53.84
2023-01-30T07:43:29.251Z,54.39
2023-01-30T07:48:30.776Z,54.22
2023-01-30T07:53:32.296Z,54.64
2023-01-30T07:58:33.956Z,54.12
2023-01-30T08:03:35.621Z,54.42
2023-01-30T08:08:37.277Z,54.54
2023-01-30T08:13:38.769Z,54.44
2023-01-30T08:18:40.316Z,54.17
2023-01-30T08:23:41.818Z,54.77
2023-01-30T08:28:43.438Z,54.20
2023-01-30T08:33:44.971Z,54.41
2023-01-30T08:38:46.676Z,54.72
2023-01-30T08:43:48.203Z,54.73
2023-01-30T08:48:50.555Z,54.79
2023-01-30T08:53:52.253Z,54.42
2023-01-30T08:58:54.001Z,54.52
2023-01-30T09:03:55.641Z,54.36
2023-01-30T09:08:59.649Z,54.42
2023-01-30T09:14:01.494Z,54.37
2023-01-30T09:19:03.331Z,54.43
2023-01-30T09:24:05.948Z,54.74
2023-01-30T09:29:07.519Z,54.85
2023-01-30T09:34:09.178Z,54.73
2023-01-30T09:39:10.677Z,54.76
2023-01-30T09:45:07.803Z,54.45
2023-01-30T09:50:42.164Z,54.34
2023-01-30T09:55:46.157Z,54.56
2023-01-30T10:00:51.753Z,54.41
2023-01-30T10:05:58.842Z,54.75
2023-01-30T10:11:41.086Z,55.09
2023-01-30T10:16:53.926Z,55.04
2023-01-30T10:22:28.984Z,55.22
2023-01-30T10:27:32.844Z,55.60
2023-01-30T10:32:55.856Z,55.29
2023-01-30T10:38:27.068Z,55.60
2023-01-30T10:43:41.447Z,55.65
2023-01-30T10:48:59.534Z,55.56
2023-01-30T10:54:03.503Z,55.36
2023-01-30T10:59:24.738Z,56.27
2023-01-30T11:04:39.505Z,55.83
2023-01-30T11:09:43.186Z,56.14
2023-01-30T11:14:58.747Z,56.24
2023-01-30T11:20:11.867Z,56.24
2023-01-30T11:25:21.746Z,56.55
2023-01-30T11:30:29.037Z,56.57
2023-01-30T11:35:32.843Z,56.49
2023-01-30T11:40:39.867Z,56.74
2023-01-30T11:45:45.665Z,56.85
2023-01-30T11:50:50.251Z,56.73
2023-01-30T11:56:19.741Z,56.46
2023-01-30T12:01:28.197Z,56.78
2023-01-30T12:06:41.727Z,56.85
2023-01-30T12:11:46.349Z,56.82
2023-01-30T12:17:00.387Z,56.88
2023-01-30T12:22:22.843Z,56.45
2023-01-30T12:28:12.563Z,56.80
2023-01-30T12:33:22.299Z,56.56
2023-01-30T12:38:47.316Z,56.73
2023-01-30T12:44:22.598Z,56.95
2023-01-30T12:50:01.138Z,57.01
2023-01-30T12:55:22.081Z,57.33
2023-01-30T13:01:02.260Z,57.38
2023-01-30T13:06:23.162Z,57.53
2023-01-30T13:11:41.924Z,57.99
2023-01-30T13:17:03.413Z,57.43
2023-01-30T13:22:26.039Z,57.75
2023-01-30T13:27:35.310Z,57.99
2023-01-30T13:33:03.078Z,58.14
2023-01-30T13:38:08.307Z,58.21
2023-01-30T13:43:23.117Z,57.89
2023-01-30T13:48:42.817Z,57.97
2023-01-30T13:54:10.710Z,57.65
2023-01-30T13:59:55.902Z,57.77
2023-01-30T14:05:05.817Z,57.92
2023-01-30T14:10:10.458Z,57.99
2023-01-30T14:15:15.489Z,57.78
2023-01-30T14:20:36.305Z,57.76
2023-01-30T14:25:47.604Z,57.44
2023-01-30T14:30:52.408Z,57.12
2023-01-30T14:36:04.679Z,57.49
2023-01-30T14:41:38.934Z,57.22
2023-01-30T14:46:54.470Z,57.17
2023-01-30T14:52:00.283Z,57.38
2023-01-30T14:57:27.673Z,57.37
2023-01-30T15:02:49.011Z,57.46
2023-01-30T15:08:07.211Z,57.26
2023-01-30T15:13:21.018Z,57.01
2023-01-30T15:18:28.499Z,57.13
2023-01-30T15:24:05.056Z,56.69
2023-01-30T15:29:48.608Z,56.48
2023-01-30T15:34:57.090Z,56.72
2023-01-30T15:40:21.701Z,56.76
2023-01-30T15:45:44.535Z,57.19
2023-01-30T15:50:54.823Z,56.42
2023-01-30T15:56:00.718Z,56.53
2023-01-30T16:01:03.907Z,56.86
2023-01-30T16:06:06.062Z,56.49
2023-01-30T16:11:12.531Z,56.19
2023-01-30T16:16:19.392Z,56.41
2023-01-30T16:21:34.312Z,56.46
2023-01-30T16:26:44.342Z,56.38
2023-01-30T16:31:52.543Z,56.27
2023-01-30T16:36:57.554Z,56.54
2023-01-30T16:42:13.802Z,56.58
2023-01-30T16:47:32.654Z,56.64
2023-01-30T16:52:44.396Z,56.69
2023-01-30T16:57:56.058Z,56.62
2023-01-30T17:03:08.757Z,56.20
2023-01-30T17:09:10.223Z,56.67
2023-01-30T17:14:17.513Z,56.42
2023-01-30T17:19:19.049Z,56.48
2023-01-30T17:24:24.196Z,56.11
2023-01-30T17:29:42.868Z,56.58
2023-01-30T17:34:47.723Z,56.28
2023-01-30T17:39:51.229Z,56.68
2023-01-30T17:44:55.398Z,56.17
2023-01-30T17:49:56.950Z,56.12
2023-01-30T17:55:07.791Z,56.26
2023-01-30T18:00:18.775Z,56.58
2023-01-30T18:05:29.477Z,56.36
2023-01-30T18:10:35.353Z,56.13
2023-01-30T18:15:40.238Z,56.14
2023-01-30T18:20:42.678Z,56.11
2023-01-30T18:25:46.587Z,56.36
2023-01-30T18:30:54.966Z,55.91
2023-01-30T18:36:04.297Z,55.82
2023-01-30T18:41:10.258Z,56.21
2023-01-30T18:46:27.073Z,56.10
2023-01-30T18:51:36.134Z,56.19
2023-01-30T18:56:38.636Z,55.53
2023-01-30T19:01:42.716Z,56.25
2023-01-30T19:06:48.392Z,55.87
2023-01-30T19:12:10.093Z,56.07
2023-01-30T19:17:16.311Z,55.63
2023-01-30T19:22:19.133Z,55.20
2023-01-30T19:27:21.121Z,55.50
2023-01-30T19:32:26.382Z,55.63
2023-01-30T19:37:30.339Z,55.70
2023-01-30T19:42:31.915Z,55.47
2023-01-30T19:47:34.389Z,55.69
2023-01-30T19:52:40.770Z,55.71
2023-01-30T19:57:46.819Z,55.58
2023-01-30T20:02:52.528Z,55.43
2023-01-30T20:07:58.383Z,55.04
2023-01-30T20:13:07.153Z,55.38
2023-01-30T20:18:08.703Z,55.39
2023-01-30T20:23:10.592Z,55.86
2023-01-30T20:28:19.101Z,55.30
2023-01-30T20:33:21.149Z,54.96
2023-01-30T20:38:25.021Z,55.31
2023-01-30T20:43:33.889Z,55.28
2023-01-30T20:48:37.364Z,55.17
2023-01-30T20:53:47.449Z,55.18
2023-01-30T20:58:50.717Z,55.13
2023-01-30T21:03:57.469Z,55.21
2023-01-30T21:09:03.250Z,55.16
2023-01-30T21:14:15.922Z,55.06
2023-01-30T21:19:23.105Z,55.52
2023-01-30T21:24:28.184Z,55.77
2023-01-30T21:29:34.965Z,55.71
2023-01-30T21:34:40.605Z,55.87
2023-01-30T21:40:25.572Z,55.46
2023-01-30T21:45:31.811Z,56.04
2023-01-30T21:50:35.681Z,55.64
2023-01-30T21:55:37.850Z,56.10
2023-01-30T22:00:44.794Z,56.04
2023-01-30T22:05:48.985Z,56.08
2023-01-30T22:10:50.680Z,55.50
2023-01-30T22:16:14.764Z,55.92
2023-01-30T22:21:26.743Z,55.71
2023-01-30T22:26:31.238Z,55.80
2023-01-30T22:31:35.558Z,56.04
2023-01-30T22:36:39.808Z,55.90
2023-01-30T22:41:52.066Z,55.71
2023-01-30T22:46:55.261Z,55.83
2023-01-30T22:52:01.601Z,56.08
2023-01-30T22:57:06.091Z,55.84
2023-01-30T23:02:10.225Z,55.77
2023-01-30T23:07:17.691Z,55.92
2023-01-30T23:12:40.366Z,55.97
2023-01-30T23:18:05.617Z,56.04
2023-01-30T23:23:09.662Z,56.06
2023-01-30T23:28:24.563Z,56.04
2023-01-30T23:33:28.448Z,55.89
2023-01-30T23:38:35.408Z,55.89
2023-01-30T23:43:40.406Z,55.90
2023-01-30T23:48:44.478Z,56.18
2023-01-30T23:53:48.426Z,55.78
2023-01-30T23:58:50.313Z,55.57
